Time;durP1;ratioP1;P1;durP2;ratioP2;P2;SDS_P1;SDS_P2;PMS_P1;PMS_P2;Temp;Humidity;BMP_temperature;BMP_pressure;BME280_temperature;BME280_humidity;BME280_pressure;Samples;Min_cycle;Max_cycle;Signal;HPM_P1;HPM_P2
2022/06/03 00:02:43;;;;;;;2.75;1.58;;;;;;;21.67;41.21;100176.63;4352840;32;31778;-84
2022/06/03 00:05:48;;;;;;;4.18;1.65;;;;;;;21.45;42.34;100167.56;4365092;32;33639;-84
2022/06/03 00:08:38;;;;;;;4.43;1.85;;;;;;;21.43;42.70;100161.41;4353029;32;34696;-84
2022/06/03 00:11:13;;;;;;;3.30;1.77;;;;;;;21.53;42.62;100156.69;4363709;32;33985;-84
2022/06/03 00:13:55;;;;;;;3.00;1.80;;;;;;;;;;4376655;32;33977;-84
2022/06/03 00:16:46;;;;;;;4.03;2.00;;;;;;;21.59;42.75;100172.37;4350933;32;34545;-84
2022/06/03 00:19:32;;;;;;;6.05;2.10;;;;;;;21.55;43.00;100181.56;4350954;32;33956;-85
2022/06/03 00:22:13;;;;;;;5.30;1.87;;;;;;;21.52;43.06;100187.69;4363307;32;33437;-84
2022/06/03 00:25:17;;;;;;;3.87;1.62;;;;;;;21.35;43.29;100194.28;4351062;32;31577;-84
2022/06/03 00:28:05;;;;;;;2.72;1.80;;;;;;;21.13;43.35;100201.06;4352847;32;31841;-84
2022/06/03 00:30:43;;;;;;;5.22;1.83;;;;;;;21.13;42.77;100203.84;4353024;32;35294;-84
2022/06/03 00:33:55;;;;;;;7.50;1.73;;;;;;;21.14;43.29;100211.09;4353016;32;33585;-84
2022/06/03 00:36:39;;;;;;;4.50;1.70;;;;;;;21.27;42.97;100214.34;4351799;32;33549;-84
2022/06/03 00:39:56;;;;;;;5.03;1.62;;;;;;;21.04;43.00;100214.66;4352710;32;32233;-84
2022/06/03 00:42:47;;;;;;;4.18;1.83;;;;;;;21.28;41.79;100210.44;4348611;32;33950;-84
2022/06/03 00:45:40;;;;;;;3.75;1.92;;;;;;;21.28;42.13;100209.59;4352519;32;32243;-84
2022/06/03 00:48:42;;;;;;;3.33;1.90;;;;;;;21.02;42.78;100212.12;4352541;32;32760;-84
2022/06/03 00:51:38;;;;;;;3.22;1.73;;;;;;;20.97;42.58;100220.44;4352233;32;32365;-84
2022/06/03 00:54:05;;;;;;;3.70;1.90;;;;;;;20.64;43.62;100224.31;4352383;32;32810;-84
2022/06/03 00:57:09;;;;;;;3.97;1.80;;;;;;;20.70;43.51;100220.47;4352435;32;32889;-84
2022/06/03 00:59:46;;;;;;;3.12;1.70;;;;;;;20.78;43.35;100215.53;4364718;32;33341;-84
2022/06/03 01:02:26;;;;;;;3.37;1.50;;;;;;;20.74;43.49;100212.41;4352285;32;32201;-84
2022/06/03 01:05:09;;;;;;;6.20;1.98;;;;;;;20.86;43.27;100224.22;4352414;32;32951;-85
2022/06/03 01:07:55;;;;;;;4.30;1.60;;;;;;;20.71;43.70;100224.94;4352504;32;32451;-84
2022/06/03 01:10:46;;;;;;;4.87;1.90;;;;;;;20.56;44.27;100241.50;4352465;32;32001;-84
2022/06/03 01:13:18;;;;;;;3.33;1.75;;;;;;;20.50;44.65;100231.41;4364510;32;33711;-84
2022/06/03 01:15:52;;;;;;;4.35;2.10;;;;;;;20.47;44.68;100228.28;4352231;32;32499;-84
2022/06/03 01:18:33;;;;;;;3.30;1.75;;;;;;;20.51;44.40;100233.06;4352528;32;32366;-84
2022/06/03 01:21:18;;;;;;;4.90;1.90;;;;;;;20.54;44.46;100228.94;4363659;32;33348;-84
2022/06/03 01:24:24;;;;;;;3.53;1.90;;;;;;;20.54;44.41;100228.94;4351930;32;33320;-84
2022/06/03 01:27:10;;;;;;;4.10;2.12;;;;;;;20.51;44.63;100232.25;4364489;32;35233;-84
2022/06/03 01:30:00;;;;;;;4.68;1.83;;;;;;;20.45;44.83;100239.69;4352373;32;32582;-84
2022/06/03 01:32:45;;;;;;;4.18;2.00;;;;;;;20.48;44.80;100239.19;4352294;32;31762;-84
2022/06/03 01:35:37;;;;;;;3.75;1.75;;;;;;;20.36;44.97;100236.50;4352406;32;32244;-84
2022/06/03 01:38:49;;;;;;;4.70;2.58;;;;;;;20.36;44.74;100242.06;4364836;32;34388;-84
2022/06/03 01:41:20;;;;;;;5.87;2.30;;;;;;;20.37;44.73;100254.91;4331468;33;32601;-84
2022/06/03 01:44:01;;;;;;;4.05;1.98;;;;;;;20.39;44.78;100246.31;4361106;32;33306;-84
2022/06/03 01:47:23;;;;;;;3.78;1.80;;;;;;;20.30;45.24;100251.47;4352050;32;32403;-84
2022/06/03 01:50:06;;;;;;;5.30;1.95;;;;;;;20.38;45.06;100255.78;4331250;33;34366;-84
2022/06/03 01:52:59;;;;;;;2.95;1.73;;;;;;;20.36;45.18;100260.75;4349436;32;32138;-84
2022/06/03 01:55:49;;;;;;;3.97;2.10;;;;;;;20.29;45.47;100268.44;4352305;32;31751;-84
2022/06/03 01:58:48;;;;;;;5.60;1.95;;;;;;;20.40;45.38;100264.72;4352166;32;32192;-84
2022/06/03 02:01:34;;;;;;;4.75;2.42;;;;;;;20.26;45.64;100258.66;4352034;32;34698;-84
2022/06/03 02:04:14;;;;;;;6.53;2.12;;;;;;;20.28;45.42;100262.03;4364427;32;34848;-84
2022/06/03 02:07:14;;;;;;;2.78;1.73;;;;;;;20.37;45.30;100259.62;4364669;32;34138;-84
2022/06/03 02:09:57;;;;;;;5.12;2.00;;;;;;;20.29;45.59;100255.34;4351642;32;34039;-84
2022/06/03 02:12:34;;;;;;;4.03;1.90;;;;;;;20.36;45.44;100261.59;4351559;32;33030;-84
2022/06/03 02:15:27;;;;;;;6.60;2.17;;;;;;;20.33;45.66;100256.53;4364206;32;32488;-84
2022/06/03 02:18:13;;;;;;;3.90;2.10;;;;;;;20.25;45.97;100254.19;4352112;32;33271;-84
2022/06/03 02:20:50;;;;;;;4.03;2.05;;;;;;;20.33;45.80;100253.75;4364447;32;34581;-84
2022/06/03 02:23:28;;;;;;;3.40;1.87;;;;;;;20.34;45.83;100246.22;4351754;32;32925;-84
2022/06/03 02:26:08;;;;;;;3.25;1.95;;;;;;;20.21;46.13;100249.38;4364153;32;34017;-84
2022/06/03 02:30:24;;;;;;;2.97;1.80;;;;;;;20.24;46.00;100248.88;4351762;32;32668;-84
2022/06/03 02:32:04;;;;;;;4.00;2.00;;;;;;;20.09;46.50;100255.09;4363848;32;33324;-84
2022/06/03 02:34:54;;;;;;;4.60;2.30;;;;;;;20.18;46.14;100256.31;4364254;32;34508;-84
2022/06/03 02:37:34;;;;;;;3.85;2.00;;;;;;;20.11;46.25;100254.84;4364009;32;33798;-84
2022/06/03 02:40:25;;;;;;;4.12;2.20;;;;;;;20.09;46.26;100249.53;4351580;32;32274;-84
2022/06/03 02:43:24;;;;;;;5.32;2.37;;;;;;;20.10;46.25;100251.22;4349108;32;33951;-84
2022/06/03 02:46:10;;;;;;;4.12;2.00;;;;;;;20.04;46.53;100258.66;4351409;32;33912;-84
2022/06/03 02:48:38;;;;;;;4.72;2.35;;;;;;;20.03;46.53;100256.97;4363798;32;34009;-84
2022/06/03 02:51:18;;;;;;;4.60;2.20;;;;;;;20.01;46.56;100248.03;4363963;32;33387;-84
2022/06/03 02:53:55;;;;;;;6.53;2.47;;;;;;;20.03;46.70;100256.97;4351252;32;32311;-84
2022/06/03 02:57:14;;;;;;;4.43;2.28;;;;;;;20.04;46.74;100255.88;4351584;32;33922;-84
2022/06/03 02:59:48;;;;;;;5.07;2.42;;;;;;;19.97;47.16;100257.16;4345569;32;33754;-84
2022/06/03 03:02:36;;;;;;;4.35;2.37;;;;;;;19.94;47.31;100250.16;4365811;32;33494;-84
2022/06/03 03:05:36;;;;;;;3.85;2.17;;;;;;;19.95;47.35;100251.00;4353576;32;33450;-84
2022/06/03 03:08:26;;;;;;;4.12;2.12;;;;;;;19.82;48.08;100246.63;4353538;32;34415;-84
2022/06/03 03:11:12;;;;;;;7.03;2.40;;;;;;;19.84;47.97;100263.09;4365762;32;33985;-84
2022/06/03 03:14:17;;;;;;;4.78;2.70;;;;;;;19.83;48.05;100269.75;4365692;32;33227;-84
2022/06/03 03:17:04;;;;;;;4.78;2.40;;;;;;;19.88;47.84;100267.91;4353314;32;32321;-84
2022/06/03 03:19:52;;;;;;;4.53;2.40;;;;;;;19.79;48.22;100265.81;4365623;32;35142;-84
2022/06/03 03:22:29;;;;;;;4.50;2.42;;;;;;;19.84;48.11;100271.44;4347980;32;32458;-84
2022/06/03 03:25:15;;;;;;;4.57;2.40;;;;;;;19.85;48.13;100273.97;4365384;32;33230;-84
2022/06/03 03:27:52;;;;;;;4.75;2.12;;;;;;;19.72;48.71;100269.59;4353093;32;33028;-84
2022/06/03 03:30:35;;;;;;;4.18;2.35;;;;;;;19.72;48.73;100274.34;4353116;32;32941;-84
2022/06/03 03:33:20;;;;;;;7.18;3.70;;;;;;;19.86;48.13;100281.25;4353218;32;33411;-84
2022/06/03 03:36:23;;;;;;;9.00;5.40;;;;;;;19.75;48.44;100290.53;4353429;32;33979;-84
2022/06/03 03:39:06;;;;;;;6.70;3.40;;;;;;;19.64;48.69;100289.53;4365228;32;34076;-84
2022/06/03 03:41:53;;;;;;;5.47;2.83;;;;;;;19.79;48.05;100286.16;4365588;32;35035;-84
2022/06/03 03:44:26;;;;;;;;;;;;;;;19.61;48.81;100290.03;4353252;32;32954;-84
2022/06/03 03:47:19;;;;;;;6.57;2.72;;;;;;;19.65;49.26;100291.22;4353114;32;32835;-84
2022/06/03 03:49:50;;;;;;;6.50;2.60;;;;;;;19.73;49.25;100284.37;4353028;32;32240;-84
2022/06/03 03:52:27;;;;;;;4.80;2.60;;;;;;;19.72;49.62;100285.47;4365509;32;34776;-84
2022/06/03 03:55:15;;;;;;;4.68;2.45;;;;;;;19.70;50.01;100287.66;4365350;32;34047;-84
2022/06/03 03:58:02;;;;;;;4.37;2.45;;;;;;;19.85;49.70;100287.06;4353191;32;33613;-84
2022/06/03 04:00:57;;;;;;;5.30;2.50;;;;;;;19.84;49.98;100283.44;4353014;32;31810;-84
2022/06/03 04:03:43;;;;;;;4.78;2.75;;;;;;;19.82;50.28;100282.84;4340728;32;33977;-84
2022/06/03 04:06:21;;;;;;;6.30;3.20;;;;;;;19.88;49.82;100283.78;4352825;32;32432;-84
2022/06/03 04:09:23;;;;;;;6.00;2.78;;;;;;;19.98;49.76;100286.72;4352976;32;31691;-84
2022/06/03 04:12:37;;;;;;;6.80;3.12;;;;;;;20.10;49.82;100297.75;4352505;32;32173;-84
2022/06/03 04:15:42;;;;;;;8.80;3.20;;;;;;;20.05;50.64;100298.53;4364325;32;34489;-85
2022/06/03 04:18:47;;;;;;;5.28;2.85;;;;;;;19.98;51.33;100287.56;4352914;32;32446;-84
2022/06/03 04:21:23;;;;;;;6.32;3.00;;;;;;;20.00;51.71;100296.50;4352760;32;31844;-84
2022/06/03 04:24:29;;;;;;;5.30;3.22;;;;;;;20.22;51.20;100298.44;4365164;32;33634;-84
2022/06/03 04:27:19;;;;;;;5.45;3.25;;;;;;;20.32;50.98;100306.97;4352752;32;34401;-93
2022/06/03 04:30:04;;;;;;;6.55;2.92;;;;;;;20.31;51.45;100305.28;4352666;32;32552;-90
2022/06/03 04:32:48;;;;;;;6.00;2.75;;;;;;;20.41;51.61;100304.59;4365232;32;33371;-93
2022/06/03 04:35:44;;;;;;;5.43;2.92;;;;;;;20.44;51.71;100304.94;4352909;32;34402;-92
2022/06/03 04:38:54;;;;;;;6.12;3.28;;;;;;;20.43;51.45;100305.19;4353347;32;34699;-84
2022/06/03 04:41:54;;;;;;;4.93;3.03;;;;;;;20.58;50.88;100311.81;4351117;32;34184;-80
2022/06/03 04:44:41;;;;;;;7.55;3.78;;;;;;;20.86;49.98;100309.88;4359912;32;33266;-78
2022/06/03 04:47:26;;;;;;;7.35;3.45;;;;;;;20.64;51.96;100307.97;4382443;32;34014;-77
2022/06/03 04:50:00;;;;;;;6.18;3.03;;;;;;;20.89;50.89;100309.38;4369638;32;34353;-81
2022/06/03 04:53:10;;;;;;;7.07;3.45;;;;;;;20.87;50.94;100312.41;4361991;32;32539;-81
2022/06/03 04:56:12;;;;;;;6.45;2.90;;;;;;;21.08;50.24;100316.28;4364998;32;33238;-78
2022/06/03 04:59:05;;;;;;;5.50;3.00;;;;;;;21.15;50.08;100311.34;4352323;32;32294;-77
2022/06/03 05:01:45;;;;;;;9.00;3.70;;;;;;;21.08;49.55;100305.13;4364868;32;34924;-80
2022/06/03 05:04:50;;;;;;;9.45;4.00;;;;;;;21.10;48.83;100302.91;4364889;32;34342;-79
2022/06/03 05:07:56;;;;;;;8.07;3.90;;;;;;;21.25;48.28;100311.47;4364951;32;33920;-78
2022/06/03 05:11:01;;;;;;;6.97;3.80;;;;;;;21.33;47.99;100324.94;4349872;32;33581;-78
2022/06/03 05:13:49;;;;;;;9.43;4.70;;;;;;;21.43;47.81;100315.00;4349918;32;33950;-78
2022/06/03 05:16:38;;;;;;;7.00;3.08;;;;;;;21.52;47.73;100322.59;4363114;32;34851;-80
2022/06/03 05:19:30;;;;;;;7.55;3.50;;;;;;;21.49;49.79;100317.53;4347994;32;33943;-77
2022/06/03 05:22:17;;;;;;;7.68;3.10;;;;;;;21.58;50.39;100326.28;4346891;32;32284;-76
2022/06/03 05:25:06;;;;;;;6.22;3.10;;;;;;;21.63;50.00;100329.13;4360848;32;34232;-77
2022/06/03 05:28:12;;;;;;;9.73;3.17;;;;;;;21.65;51.16;100330.53;4361281;32;34440;-77
2022/06/03 05:31:08;;;;;;;5.45;3.28;;;;;;;21.88;50.28;100328.47;4336778;32;31600;-77
2022/06/03 05:33:45;;;;;;;5.60;3.30;;;;;;;21.83;49.50;100332.09;4348470;32;33322;-77
2022/06/03 05:36:31;;;;;;;6.87;3.08;;;;;;;21.77;49.40;100337.91;4348876;32;34695;-77
2022/06/03 05:39:25;;;;;;;6.30;3.10;;;;;;;22.00;47.89;100334.72;4349223;32;32614;-79
2022/06/03 05:42:23;;;;;;;5.47;3.17;;;;;;;22.14;48.06;100329.50;4363116;32;33987;-79
2022/06/03 05:45:09;;;;;;;6.18;3.15;;;;;;;22.16;48.53;100350.50;4349593;32;32241;-80
2022/06/03 05:47:48;;;;;;;5.30;3.03;;;;;;;22.33;45.85;100341.94;4349754;32;33953;-78
2022/06/03 05:50:23;;;;;;;5.72;2.97;;;;;;;22.65;45.28;100345.47;4349470;32;33262;-81
2022/06/03 05:53:10;;;;;;;5.45;3.08;;;;;;;22.67;45.02;100345.22;4337818;32;34179;-79
2022/06/03 05:55:52;;;;;;;5.45;3.17;;;;;;;22.55;43.99;100350.19;4349694;32;33714;-79
2022/06/03 05:59:17;;;;;;;6.12;3.08;;;;;;;22.80;44.90;100352.28;4349323;32;35128;-81
2022/06/03 06:02:00;;;;;;;7.05;3.05;;;;;;;22.82;44.62;100342.47;4331472;33;34766;-80
2022/06/03 06:04:46;;;;;;;5.75;2.70;;;;;;;22.88;42.96;100341.38;4331137;33;31789;-96
2022/06/03 06:07:17;;;;;;;;;;;;;;;23.04;43.23;100336.69;4351683;32;33855;-92
2022/06/03 06:09:47;;;;;;;5.85;2.80;;;;;;;23.15;41.93;100334.75;4360155;32;35053;-91
2022/06/03 06:12:24;;;;;;;6.55;3.22;;;;;;;23.05;41.34;100327.16;4364480;32;32404;-92
2022/06/03 06:15:16;;;;;;;5.18;3.30;;;;;;;23.20;42.41;100332.81;4364114;32;31748;-92
2022/06/03 06:17:50;;;;;;;6.07;3.20;;;;;;;23.44;41.13;100340.66;4376361;32;34318;-92
2022/06/03 06:20:41;;;;;;;5.85;2.83;;;;;;;23.49;40.58;100323.88;4376380;32;35437;-92
2022/06/03 06:24:07;;;;;;;7.20;3.17;;;;;;;23.60;40.19;100334.00;4363944;32;33069;-93
2022/06/03 06:27:18;;;;;;;8.00;3.47;;;;;;;23.57;40.13;100326.16;4374503;32;33321;-92
2022/06/03 06:30:26;;;;;;;7.95;3.40;;;;;;;23.78;38.85;100327.84;4376172;32;34039;-92
2022/06/03 06:33:24;;;;;;;5.78;3.00;;;;;;;23.74;39.64;100331.50;4376053;32;34346;-92
2022/06/03 06:36:05;;;;;;;8.23;3.08;;;;;;;24.01;38.45;100318.03;4366096;32;34495;-90
2022/06/03 06:38:47;;;;;;;6.53;3.50;;;;;;;24.04;38.87;100322.22;4365630;32;32847;-92
2022/06/03 06:41:40;;;;;;;7.93;4.95;;;;;;;24.28;38.23;100328.91;4366084;32;33676;-93
2022/06/03 06:44:33;;;;;;;4.72;2.97;;;;;;;24.19;39.08;100333.38;4366159;32;33584;-90
2022/06/03 06:47:41;;;;;;;6.32;2.95;;;;;;;24.18;39.37;100331.72;4366006;32;33449;-93
2022/06/03 06:50:21;;;;;;;6.85;3.00;;;;;;;24.16;38.63;100328.34;4365743;32;33436;-92
2022/06/03 06:53:02;;;;;;;6.82;3.12;;;;;;;24.46;38.69;100328.31;4365991;32;32949;-93
2022/06/03 06:55:41;;;;;;;5.47;3.12;;;;;;;24.38;39.60;100325.25;4365936;32;33138;-94
2022/06/03 06:58:30;;;;;;;5.18;3.10;;;;;;;24.35;39.89;100331.44;4366609;32;33966;-93
2022/06/03 07:01:13;;;;;;;6.12;2.95;;;;;;;24.58;39.18;100319.56;4366272;32;32783;-94
2022/06/03 07:04:08;;;;;;;7.87;3.20;;;;;;;24.59;38.66;100322.09;4366281;32;34086;-93
2022/06/03 07:06:51;;;;;;;5.87;2.90;;;;;;;24.63;39.70;100327.97;4366018;32;32772;-94
2022/06/03 07:09:40;;;;;;;6.43;3.17;;;;;;;24.70;38.77;100322.06;4378177;32;33799;-94
2022/06/03 07:12:22;;;;;;;5.70;3.03;;;;;;;24.67;39.30;100328.25;4366236;32;32607;-93
2022/06/03 07:15:33;;;;;;;7.15;4.50;;;;;;;24.79;38.99;100312.72;4358047;32;32258;-95
2022/06/03 07:21:11;;;;;;;5.78;2.80;;;;;;;24.72;38.78;100326.22;4378386;32;34059;-93
2022/06/03 07:23:50;;;;;;;5.55;3.10;;;;;;;25.02;37.69;100318.84;4365915;32;31787;-93
2022/06/03 07:26:37;;;;;;;8.75;3.22;;;;;;;25.30;37.76;100314.44;4365819;32;32747;-93
2022/06/03 07:29:11;;;;;;;8.23;2.97;;;;;;;25.12;39.06;100304.72;4353493;32;34048;-93
2022/06/03 07:31:50;;;;;;;6.10;3.33;;;;;;;25.18;37.49;100295.97;4353376;32;32682;-94
2022/06/03 07:34:26;;;;;;;8.25;3.10;;;;;;;25.37;37.72;100304.53;4365592;32;33063;-95
2022/06/03 07:37:11;;;;;;;9.82;3.20;;;;;;;25.53;37.08;100296.84;4365582;32;34205;-93
2022/06/03 07:39:56;;;;;;;6.87;3.00;;;;;;;25.45;37.92;100300.25;4365857;32;34445;-92
2022/06/03 07:42:35;;;;;;;5.22;2.78;;;;;;;25.50;37.31;100298.25;4365439;32;32410;-94
2022/06/03 07:45:26;;;;;;;5.75;2.70;;;;;;;25.64;35.66;100300.41;4364884;32;32904;-94
2022/06/03 07:48:09;;;;;;;6.50;2.50;;;;;;;25.87;35.44;100306.13;4377895;32;32779;-94
2022/06/03 07:50:45;;;;;;;5.32;2.67;;;;;;;25.90;35.55;100302.72;4365439;32;35031;-96
2022/06/03 07:53:28;;;;;;;4.95;2.67;;;;;;;25.85;35.53;100299.97;4366233;32;32596;-94
2022/06/03 07:55:59;;;;;;;4.18;2.50;;;;;;;25.70;36.19;100304.87;4378105;32;33530;-95
2022/06/03 07:58:35;;;;;;;5.05;2.30;;;;;;;25.80;35.34;100308.44;4365562;32;33744;-94
2022/06/03 08:01:42;;;;;;;4.00;2.47;;;;;;;25.98;35.09;100306.88;4365947;32;32930;-95
2022/06/03 08:04:26;;;;;;;4.47;2.70;;;;;;;25.78;36.11;100305.09;4365494;32;32685;-95
2022/06/03 08:12:36;;;;;;;4.85;2.85;;;;;;;26.14;34.46;100296.28;4367377;32;32834;-94
2022/06/03 08:15:15;;;;;;;6.35;2.80;;;;;;;25.88;36.25;100290.94;4354324;32;32415;-95
2022/06/03 08:17:45;;;;;;;6.68;3.00;;;;;;;26.42;33.98;100287.00;4353409;32;32873;-89
2022/06/03 08:20:18;;;;;;;7.60;2.83;;;;;;;26.47;34.37;100286.94;4377773;32;34241;-90
2022/06/03 08:22:46;;;;;;;5.30;3.20;;;;;;;26.47;34.02;100289.75;4365278;32;34453;-90
2022/06/03 08:25:27;;;;;;;9.95;3.12;;;;;;;26.64;33.64;100297.72;4365214;32;33731;-89
2022/06/03 08:28:01;;;;;;;4.05;2.30;;;;;;;26.69;33.25;100292.00;4365166;32;33090;-89
2022/06/03 08:30:33;;;;;;;4.85;2.70;;;;;;;26.70;33.31;100287.19;4365074;32;33997;-89
2022/06/03 08:33:05;;;;;;;5.43;2.45;;;;;;;26.76;33.32;100286.84;4365240;32;34645;-89
2022/06/03 08:35:42;;;;;;;5.75;2.65;;;;;;;26.92;32.85;100290.28;4365101;32;34641;-89
2022/06/03 08:38:17;;;;;;;7.20;3.28;;;;;;;27.03;32.54;100285.38;4365125;32;33507;-90
2022/06/03 08:41:11;;;;;;;4.20;2.55;;;;;;;27.27;32.35;100277.69;4365198;32;32071;-90
2022/06/03 08:44:07;;;;;;;5.95;2.58;;;;;;;27.29;31.77;100280.22;4364900;32;32716;-90
2022/06/03 08:47:00;;;;;;;5.78;2.10;;;;;;;27.07;32.10;100280.81;4365051;32;32434;-90
2022/06/03 08:49:49;;;;;;;4.30;2.20;;;;;;;27.39;31.80;100271.56;4364956;32;33111;-90
2022/06/03 08:52:26;;;;;;;6.50;3.45;;;;;;;27.53;31.70;100283.75;4365579;32;32007;-91
2022/06/03 08:54:57;;;;;;;9.68;6.62;;;;;;;27.64;31.67;100278.81;4365051;32;34442;-90
2022/06/03 08:57:36;;;;;;;5.43;2.90;;;;;;;27.52;31.80;100282.91;4364192;32;34040;-90
2022/06/03 09:00:20;;;;;;;5.60;2.42;;;;;;;28.03;31.57;100281.19;4365010;32;33418;-90
2022/06/03 09:03:00;;;;;;;3.58;2.17;;;;;;;28.03;31.24;100286.84;4365002;32;33637;-89
2022/06/03 09:05:47;;;;;;;8.77;2.50;;;;;;;28.09;31.25;100279.94;4353747;32;33319;-89
2022/06/03 09:08:16;;;;;;;4.40;2.20;;;;;;;28.26;31.26;100283.03;4364926;32;34348;-89
2022/06/03 09:11:08;;;;;;;4.20;2.30;;;;;;;28.51;30.85;100276.06;4352822;32;32806;-89
2022/06/03 09:13:45;;;;;;;5.78;2.65;;;;;;;28.51;30.44;100271.25;4352761;32;32309;-89
2022/06/03 09:16:18;;;;;;;4.65;2.42;;;;;;;28.39;30.97;100267.25;4352733;32;32836;-90
2022/06/03 09:18:55;;;;;;;8.88;2.67;;;;;;;28.50;30.56;100274.37;4377104;32;34082;-92
2022/06/03 09:21:31;;;;;;;4.87;2.30;;;;;;;28.38;29.80;100260.78;4352640;32;32380;-92
2022/06/03 09:24:12;;;;;;;5.40;2.83;;;;;;;28.68;30.19;100266.91;4364763;32;31833;-92
2022/06/03 09:26:46;;;;;;;5.30;2.72;;;;;;;28.67;30.53;100265.25;4364774;32;35386;-96
2022/06/03 09:29:17;;;;;;;5.60;2.87;;;;;;;29.01;30.32;100268.47;4366097;32;32463;-88
2022/06/03 09:31:56;;;;;;;6.93;3.12;;;;;;;28.85;30.48;100275.63;4365330;32;33321;-89
2022/06/03 09:34:57;;;;;;;9.10;4.85;;;;;;;29.28;29.96;100261.03;4365015;32;33954;-89
2022/06/03 09:37:29;;;;;;;6.35;2.40;;;;;;;29.24;29.92;100268.50;4354411;32;32881;-88
2022/06/03 09:39:59;;;;;;;7.85;2.45;;;;;;;29.54;29.86;100276.25;4364869;32;33386;-89
2022/06/03 09:42:30;;;;;;;5.87;2.40;;;;;;;29.30;29.57;100282.19;4364646;32;31522;-89
2022/06/03 09:45:04;;;;;;;3.97;2.60;;;;;;;29.56;29.12;100278.78;4352476;32;32395;-89
2022/06/03 09:47:35;;;;;;;3.72;2.20;;;;;;;29.83;28.81;100278.63;4362043;32;35735;-89
2022/06/03 09:50:05;;;;;;;4.93;2.60;;;;;;;29.99;29.20;100276.22;4362293;32;34646;-89
2022/06/03 09:52:35;;;;;;;6.37;2.47;;;;;;;29.74;29.10;100280.56;4349553;32;31603;-90
2022/06/03 09:55:14;;;;;;;6.82;4.40;;;;;;;29.75;29.51;100282.25;4347888;32;32270;-90
2022/06/03 09:57:44;;;;;;;5.60;2.67;;;;;;;30.08;28.52;100288.47;4361795;32;34648;-88
2022/06/03 10:00:28;;;;;;;5.57;2.53;;;;;;;30.19;28.32;100289.84;4361607;32;32552;-89
2022/06/03 10:03:00;;;;;;;7.15;2.55;;;;;;;30.40;28.27;100279.62;4361961;32;33030;-89
2022/06/03 10:05:34;;;;;;;4.50;2.60;;;;;;;30.20;27.56;100285.84;4349388;32;33678;-90
2022/06/03 10:08:05;;;;;;;6.80;2.55;;;;;;;30.46;28.67;100286.81;4349383;32;34743;-89
2022/06/03 10:13:24;;;;;;;5.18;2.72;;;;;;;30.68;28.89;100273.75;4351556;32;33313;-90
2022/06/03 10:16:00;;;;;;;4.87;2.40;;;;;;;30.88;28.24;100278.78;4349525;32;34498;-88
2022/06/03 10:18:39;;;;;;;5.47;2.60;;;;;;;30.95;27.86;100281.16;4362080;32;34276;-88
2022/06/03 10:21:14;;;;;;;6.53;2.83;;;;;;;31.06;27.82;100277.66;4361770;32;34051;-88
2022/06/03 10:23:51;;;;;;;5.25;2.42;;;;;;;31.47;28.36;100290.56;4361417;32;32063;-90
2022/06/03 10:26:33;;;;;;;4.12;2.35;;;;;;;31.50;26.24;100278.53;4361125;32;33255;-88
2022/06/03 10:29:29;;;;;;;7.70;4.00;;;;;;;31.21;27.33;100282.03;4361576;32;34577;-86
2022/06/03 10:32:02;;;;;;;5.97;2.55;;;;;;;31.33;27.66;100270.84;4336904;32;33246;-87
2022/06/03 10:34:39;;;;;;;14.82;3.20;;;;;;;31.76;27.00;100267.19;4361719;32;34031;-86
2022/06/03 10:37:10;;;;;;;9.18;5.85;;;;;;;31.97;26.92;100259.59;4361159;32;34013;-86
2022/06/03 10:39:45;;;;;;;4.53;2.17;;;;;;;31.89;26.01;100265.31;4360983;32;32674;-85
2022/06/03 10:42:18;;;;;;;7.18;2.15;;;;;;;31.54;26.55;100262.50;4361290;32;34069;-86
2022/06/03 10:44:50;;;;;;;5.85;2.53;;;;;;;31.80;25.86;100261.69;4361286;32;33278;-87
2022/06/03 10:47:38;;;;;;;6.70;2.40;;;;;;;32.03;26.39;100244.06;4371787;32;33742;-86
2022/06/03 10:50:11;;;;;;;15.27;3.30;;;;;;;31.93;25.13;100250.09;4378728;32;34229;-86
2022/06/03 11:01:44;;;;;;;7.35;2.50;;;;;;;32.94;24.88;100228.41;4367317;32;33920;-87
2022/06/03 11:04:39;;;;;;;4.53;1.80;;;;;;;32.83;24.54;100240.53;4378355;32;34605;-87
2022/06/03 11:07:30;;;;;;;4.12;2.30;;;;;;;32.73;23.82;100230.37;4378749;32;34079;-87
2022/06/03 11:10:03;;;;;;;6.00;2.60;;;;;;;32.60;24.70;100228.59;4378684;32;34610;-86
2022/06/03 11:12:58;;;;;;;4.70;2.62;;;;;;;33.02;24.63;100227.53;4367912;32;32954;-86
2022/06/03 11:15:38;;;;;;;5.03;2.50;;;;;;;33.09;24.35;100220.44;4378145;32;32906;-86
2022/06/03 11:18:14;;;;;;;4.90;2.00;;;;;;;33.09;24.38;100218.44;4378403;32;33620;-84
2022/06/03 11:20:43;;;;;;;5.72;2.20;;;;;;;33.42;24.10;100211.97;4392874;32;33853;-84
2022/06/03 11:23:13;;;;;;;3.67;2.08;;;;;;;33.32;24.03;100211.22;4380540;32;35184;-84
2022/06/03 11:25:46;;;;;;;2.60;1.42;;;;;;;33.38;23.51;100203.31;4380403;32;34094;-84
2022/06/03 11:28:22;;;;;;;8.13;2.00;;;;;;;33.21;22.98;100203.41;4380187;32;32865;-85
2022/06/03 11:31:18;;;;;;;8.75;2.33;;;;;;;33.51;22.97;100207.03;4369866;32;32205;-85
2022/06/03 11:33:54;;;;;;;3.97;1.90;;;;;;;33.61;23.52;100190.34;4367550;32;33865;-86
2022/06/03 11:36:37;;;;;;;4.87;2.00;;;;;;;33.78;22.97;100194.19;4353121;32;33465;-85
2022/06/03 11:39:35;;;;;;;3.35;1.90;;;;;;;34.02;23.50;100188.56;4352479;32;33313;-86
2022/06/03 11:42:24;;;;;;;4.57;2.10;;;;;;;34.00;22.68;100190.91;4353011;32;33305;-86
2022/06/03 11:45:48;;;;;;;7.25;2.10;;;;;;;33.53;22.57;100179.87;4352981;32;33923;-85
2022/06/03 11:48:28;;;;;;;6.70;2.40;;;;;;;34.25;23.08;100184.06;4350305;32;35105;-86
2022/06/03 11:50:58;;;;;;;5.87;3.28;;;;;;;34.08;22.67;100172.87;4362531;32;33951;-86
2022/06/03 11:53:30;;;;;;;3.22;1.60;;;;;;;33.91;22.42;100170.25;4350401;32;35198;-86
2022/06/03 11:56:01;;;;;;;5.05;2.10;;;;;;;34.18;20.64;100174.44;4362584;32;34178;-86
2022/06/03 11:59:07;;;;;;;4.43;1.62;;;;;;;34.32;21.92;100160.72;4362398;32;35361;-87
2022/06/03 12:01:37;;;;;;;9.00;2.30;;;;;;;34.35;23.17;100157.97;4350025;32;34544;-86
2022/06/03 12:04:23;;;;;;;7.70;3.58;;;;;;;34.20;22.29;100149.28;4362641;32;34788;-85
2022/06/03 12:07:21;;;;;;;5.72;2.45;;;;;;;33.96;22.15;100155.78;4350629;32;34610;-85
2022/06/03 12:10:04;;;;;;;6.80;2.42;;;;;;;34.01;22.84;100145.00;4362219;32;34157;-85
2022/06/03 12:15:32;;;;;;;5.05;1.80;;;;;;;34.41;22.97;100135.75;4360569;32;34478;-87
2022/06/03 12:18:06;;;;;;;5.15;2.08;;;;;;;34.44;22.76;100134.22;4362592;32;34165;-87
2022/06/03 12:20:35;;;;;;;12.55;2.70;;;;;;;34.37;21.63;100136.84;4362431;32;33842;-86
2022/06/03 12:23:17;;;;;;;4.40;2.08;;;;;;;34.33;23.60;100126.16;4350051;32;33811;-91
2022/06/03 12:25:57;;;;;;;7.10;2.25;;;;;;;34.04;22.72;100130.03;4361550;32;34287;-90
2022/06/03 12:28:31;;;;;;;4.82;2.12;;;;;;;34.38;22.42;100127.09;4350043;32;35757;-90
2022/06/03 12:31:02;;;;;;;6.00;2.58;;;;;;;34.45;22.57;100113.88;4362377;32;34062;-90
2022/06/03 12:33:30;;;;;;;4.93;2.22;;;;;;;34.47;22.38;100116.38;4350069;32;34664;-90
2022/06/03 12:36:07;;;;;;;3.22;1.80;;;;;;;34.40;22.62;100117.00;4350272;32;34450;-90
2022/06/03 12:38:45;;;;;;;7.97;1.98;;;;;;;34.56;22.70;100115.03;4337720;32;36142;-89
2022/06/03 12:41:45;;;;;;;2.37;1.52;;;;;;;34.63;20.92;100106.72;4349989;32;31999;-91
2022/06/03 12:44:31;;;;;;;3.92;1.92;;;;;;;34.50;21.08;100112.78;4349850;32;31788;-90
2022/06/03 12:47:17;;;;;;;3.80;1.60;;;;;;;34.37;22.06;100114.03;4352278;32;35058;-90
2022/06/03 12:49:48;;;;;;;5.50;2.08;;;;;;;34.59;20.90;100108.63;4364946;32;34113;-91
2022/06/03 12:52:25;;;;;;;5.60;1.95;;;;;;;34.47;21.65;100091.53;4352677;32;33784;-91
2022/06/03 12:54:52;;;;;;;3.87;1.50;;;;;;;34.46;22.05;100101.28;4364840;32;33356;-85
2022/06/03 12:57:24;;;;;;;3.85;1.85;;;;;;;34.24;21.25;100098.94;4352529;32;33449;-90
2022/06/03 13:00:23;;;;;;;3.17;1.62;;;;;;;34.08;21.82;100095.97;4352453;32;35004;-91
2022/06/03 13:03:16;;;;;;;2.83;1.50;;;;;;;34.20;21.34;100086.59;4335659;32;32394;-90
2022/06/03 13:05:50;;;;;;;2.33;1.30;;;;;;;34.54;20.65;100085.22;4352310;32;33730;-91
2022/06/03 13:08:26;;;;;;;3.25;1.55;;;;;;;34.51;21.47;100083.09;4364763;32;33920;-89
2022/06/03 13:11:04;;;;;;;6.68;1.80;;;;;;;34.51;21.66;100069.69;4352305;32;35167;-88
2022/06/03 13:13:34;;;;;;;4.12;1.73;;;;;;;34.54;21.77;100079.53;4364129;32;34145;-88